South Portland, Maine
Current Conditions -  °F | °C
As of 4:15 PM on Tuesday 21 Oct 2014 (Local Time) from KPWM Reporting Station
Moderate Rain Moderate Rain  
Wind Chill: 55°   Ceiling: 500
Heat Index: 55°   Visibility: 2mi
Dew Point: 53°   Wind: 10mph
Humidity: 93%   Direction: 30°NNE
Pressure: 29.99"   Gusts: NA
Location:  43.64°N, 70.25°W
Report Text: KPWM 212015Z 03009KT 2SM RA BR BKN005 OVC015 13/12 A2999 RMK AO2 RAB06 P0006 T01280117
Loading
Personal Weather Stations






























Interactive Weather Map New forecast layout! Learn more

10-Day Weather Forecast

Advertisements
Track Severe Weather on mobile